METAR Data

Data at: 1741 UTC 21 Nov 2018

METAR for:KLWM (Lawrence Muni, MA, US)
Text:KLWM 211654Z 20008KT 10SM FEW047 OVC110 03/M03 A2989 RMK AO2 SLP124 T00281033
Temperature: 2.8°C ( 37°F)
Dewpoint: -3.3°C ( 26°F) [RH = 64%]
Pressure (altimeter):29.89 inches Hg (1012.3 mb) [Sea level pressure: 1012.4 mb]
Winds:from the SSW (200 degrees) at 9 MPH (8 knots; 4.1 m/s)
Visibility:10 or more sm (16+ km)
Ceiling:11000 feet AGL
Clouds: few clouds at 4700 feet AGL, overcast cloud deck at 11000 feet AGL